Green Castle, Iowa
Current Conditions -  °F | °C
As of 10:55 PM on Wednesday 22 Oct 2014 (Local Time) from KTNU Reporting Station
Scattered Clouds Scattered Clouds  
Wind Chill: 54°   Ceiling: Unl
Heat Index: 54°   Visibility: 10mi
Dew Point: 43°   Wind: 12mph
Humidity: 67%   Direction: 150°SSE
Pressure: 30.14"   Gusts: NA
Location:  41.6475°N, 93.2926°W
Report Text: KTNU 230355Z AUTO 15010KT 10SM SCT085 12/06 A3014 RMK AO2
Loading
Personal Weather Stations






























Interactive Weather Map
Tropical Storm Tracking
New forecast layout! Learn more

10-Day Weather Forecast

Advertisements
Track Severe Weather on mobile